Terminal Aerodrome Forecast
Issued by NWS Sterling, VA

Current Version | Previous Version | Graphics & Text | Print | Product List | Glossary On
Versions: 1 2 3 4 5 6 7 8 9 10 11 12 13 14 15 16 17 18 19 20 21
004
FTUS41 KLWX 212322
TAFDCA
TAF
KDCA 212322Z 2200/2224 32006KT P6SM FEW060
     FM220800 33010G18KT P6SM BKN060
     FM221100 34013G27KT P6SM BKN200
     FM222200 34011G19KT P6SM SKC=

USA.gov is the U.S. government's official web portal to all federal, state and local government web resources and services.